createdAt,value
2023-05-01T00:00:53.960Z,12.23
2023-05-01T00:03:22.079Z,12.23
2023-05-01T00:05:48.953Z,12.22
2023-05-01T00:08:16.038Z,12.21
2023-05-01T00:10:43.014Z,12.22
2023-05-01T00:13:10.121Z,12.20
2023-05-01T00:15:37.407Z,12.20
2023-05-01T00:18:04.131Z,12.20
2023-05-01T00:20:32.322Z,12.22
2023-05-01T00:22:59.006Z,12.21
2023-05-01T00:25:25.878Z,12.21
2023-05-01T00:27:52.625Z,12.22
2023-05-01T00:30:19.429Z,12.21
2023-05-01T00:32:46.182Z,12.20
2023-05-01T00:35:13.394Z,12.18
2023-05-01T00:37:42.232Z,12.18
2023-05-01T00:40:09.865Z,12.17
2023-05-01T00:42:39.180Z,12.15
2023-05-01T00:45:07.352Z,12.14
2023-05-01T00:47:35.906Z,12.12
2023-05-01T00:50:03.385Z,12.12
2023-05-01T00:52:30.060Z,12.11
2023-05-01T00:54:59.211Z,12.12
2023-05-01T00:57:26.429Z,12.11
2023-05-01T00:59:53.433Z,12.09
2023-05-01T01:02:21.781Z,12.10
2023-05-01T01:04:48.831Z,12.09
2023-05-01T01:07:22.593Z,12.10
2023-05-01T01:10:02.873Z,12.08
2023-05-01T01:12:37.961Z,12.08
2023-05-01T01:15:14.599Z,12.07
2023-05-01T01:17:48.265Z,12.05
2023-05-01T01:20:32.121Z,12.02
2023-05-01T01:23:13.732Z,12.02
2023-05-01T01:26:11.547Z,12.02
2023-05-01T01:29:07.437Z,12.01
2023-05-01T01:31:42.795Z,11.98
2023-05-01T01:34:15.325Z,11.97
2023-05-01T01:36:49.383Z,11.96
2023-05-01T01:39:27.126Z,11.97
2023-05-01T01:41:57.467Z,11.96
2023-05-01T01:44:33.915Z,11.95
2023-05-01T01:47:06.149Z,11.94
2023-05-01T01:49:37.383Z,11.91
2023-05-01T01:52:07.996Z,11.91
2023-05-01T01:54:40.731Z,11.90
2023-05-01T01:57:09.860Z,11.89
2023-05-01T01:59:36.721Z,11.89
2023-05-01T02:02:05.116Z,11.88
2023-05-01T02:04:35.454Z,11.88
2023-05-01T02:07:03.915Z,11.87
2023-05-01T02:09:31.460Z,11.86
2023-05-01T02:12:00.982Z,11.85
2023-05-01T02:14:28.583Z,11.86
2023-05-01T02:16:57.120Z,11.85
2023-05-01T02:19:25.046Z,11.85
2023-05-01T02:21:55.127Z,11.85
2023-05-01T02:24:24.377Z,11.85
2023-05-01T02:26:57.693Z,11.85
2023-05-01T02:29:25.650Z,11.84
2023-05-01T02:31:52.470Z,11.84
2023-05-01T02:34:19.260Z,11.84
2023-05-01T02:36:46.019Z,11.84
2023-05-01T02:39:14.397Z,11.85
2023-05-01T02:41:42.314Z,11.85
2023-05-01T02:44:11.788Z,11.86
2023-05-01T02:46:43.348Z,11.86
2023-05-01T02:49:10.330Z,11.86
2023-05-01T02:51:38.484Z,11.83
2023-05-01T02:54:05.993Z,11.83
2023-05-01T02:56:34.152Z,11.83
2023-05-01T02:59:00.876Z,11.83
2023-05-01T03:01:28.532Z,11.83
2023-05-01T03:03:55.540Z,11.82
2023-05-01T03:06:22.390Z,11.81
2023-05-01T03:08:49.266Z,11.82
2023-05-01T03:11:15.964Z,11.81
2023-05-01T03:13:44.312Z,11.82
2023-05-01T03:16:11.182Z,11.81
2023-05-01T03:18:38.094Z,11.80
2023-05-01T03:21:05.157Z,11.78
2023-05-01T03:23:31.964Z,11.78
2023-05-01T03:25:59.538Z,11.77
2023-05-01T03:28:26.330Z,11.75
2023-05-01T03:30:54.477Z,11.73
2023-05-01T03:33:21.435Z,11.72
2023-05-01T03:35:58.837Z,11.70
2023-05-01T03:38:26.729Z,11.69
2023-05-01T03:40:53.664Z,11.68
2023-05-01T03:43:20.383Z,11.69
2023-05-01T03:45:47.056Z,11.69
2023-05-01T03:48:15.123Z,11.69
2023-05-01T03:50:42.284Z,11.71
2023-05-01T03:53:09.090Z,11.70
2023-05-01T03:55:35.708Z,11.69
2023-05-01T03:58:02.704Z,11.70
2023-05-01T04:00:29.586Z,11.69
2023-05-01T04:02:56.978Z,11.68
2023-05-01T04:05:25.451Z,11.68
2023-05-01T04:07:52.291Z,11.67
2023-05-01T04:10:19.200Z,11.66
2023-05-01T04:12:46.054Z,11.65
2023-05-01T04:15:14.225Z,11.65
2023-05-01T04:17:43.908Z,11.67
2023-05-01T04:20:11.602Z,11.64
2023-05-01T04:22:40.818Z,11.63
2023-05-01T04:25:08.667Z,11.63
2023-05-01T04:27:35.401Z,11.61
2023-05-01T04:30:02.130Z,11.59
2023-05-01T04:32:30.352Z,11.62
2023-05-01T04:34:57.829Z,11.63
2023-05-01T04:37:24.657Z,11.63
2023-05-01T04:39:53.539Z,11.64
2023-05-01T04:42:20.452Z,11.63
2023-05-01T04:44:47.404Z,11.62
2023-05-01T04:47:14.078Z,11.62
2023-05-01T04:49:40.986Z,11.61
2023-05-01T04:52:07.799Z,11.62
2023-05-01T04:54:34.507Z,11.62
2023-05-01T04:57:03.346Z,11.61
2023-05-01T04:59:30.104Z,11.60
2023-05-01T05:01:57.113Z,11.59
2023-05-01T05:04:24.874Z,11.59
2023-05-01T05:06:51.799Z,11.61
2023-05-01T05:09:20.184Z,11.63
2023-05-01T05:11:47.154Z,11.63
2023-05-01T05:14:15.385Z,11.64
2023-05-01T05:16:42.131Z,11.65
2023-05-01T05:19:08.840Z,11.68
2023-05-01T05:21:35.698Z,11.67
2023-05-01T05:24:02.398Z,11.69
2023-05-01T05:26:29.192Z,11.71
2023-05-01T05:28:55.917Z,11.73
2023-05-01T05:31:24.105Z,11.74
2023-05-01T05:33:50.845Z,11.76
2023-05-01T05:36:17.769Z,11.79
2023-05-01T05:38:44.458Z,11.82
2023-05-01T05:41:11.594Z,11.81
2023-05-01T05:43:38.284Z,11.83
2023-05-01T05:46:05.217Z,11.85
2023-05-01T05:48:33.369Z,11.85
2023-05-01T05:51:00.181Z,11.84
2023-05-01T05:53:26.983Z,11.86
2023-05-01T05:55:53.704Z,11.90
2023-05-01T05:58:20.430Z,11.93
2023-05-01T06:00:48.408Z,11.95
2023-05-01T06:03:16.207Z,11.98
2023-05-01T06:05:45.457Z,12.02
2023-05-01T06:08:12.407Z,12.02
2023-05-01T06:10:41.969Z,12.05
2023-05-01T06:13:13.665Z,12.09
2023-05-01T06:15:41.803Z,12.10
2023-05-01T06:18:09.785Z,12.12
2023-05-01T06:20:37.021Z,12.13
2023-05-01T06:23:05.299Z,12.09
2023-05-01T06:25:32.054Z,12.10
2023-05-01T06:27:58.769Z,12.12
2023-05-01T06:30:25.783Z,12.14
2023-05-01T06:32:52.596Z,12.14
2023-05-01T06:35:22.131Z,12.15
2023-05-01T06:37:48.956Z,12.18
2023-05-01T06:40:17.016Z,12.19
2023-05-01T06:42:43.823Z,12.21
2023-05-01T06:45:10.759Z,12.22
2023-05-01T06:47:37.514Z,12.21
2023-05-01T06:50:05.730Z,12.22
2023-05-01T06:52:32.708Z,12.23
2023-05-01T06:54:59.515Z,12.24
2023-05-01T06:57:27.640Z,12.26
2023-05-01T06:59:54.662Z,12.26
2023-05-01T07:02:21.648Z,12.26
2023-05-01T07:04:48.523Z,12.26
2023-05-01T07:07:15.307Z,12.24
2023-05-01T07:09:42.428Z,12.28
2023-05-01T07:12:09.162Z,12.32
2023-05-01T07:14:37.298Z,12.36
2023-05-01T07:17:04.418Z,12.38
2023-05-01T07:19:31.146Z,12.39
2023-05-01T07:21:57.899Z,12.41
2023-05-01T07:24:25.061Z,12.43
2023-05-01T07:26:51.935Z,12.47
2023-05-01T07:29:19.016Z,12.52
2023-05-01T07:31:48.349Z,12.52
2023-05-01T07:34:16.447Z,12.56
2023-05-01T07:36:43.194Z,12.61
2023-05-01T07:39:10.013Z,12.65
2023-05-01T07:41:36.825Z,12.68
2023-05-01T07:44:03.640Z,12.72
2023-05-01T07:46:30.683Z,12.77
2023-05-01T07:48:58.970Z,12.82
2023-05-01T07:51:25.769Z,12.87
2023-05-01T07:53:52.536Z,12.93
2023-05-01T07:56:19.239Z,12.98
2023-05-01T07:58:46.072Z,13.04
2023-05-01T08:01:12.822Z,13.08
2023-05-01T08:03:39.648Z,13.13
2023-05-01T08:06:07.962Z,13.19
2023-05-01T08:08:34.719Z,13.25
2023-05-01T08:11:01.429Z,13.30
2023-05-01T08:13:28.180Z,13.33
2023-05-01T08:15:55.081Z,13.40
2023-05-01T08:18:22.205Z,13.47
2023-05-01T08:20:49.436Z,13.52
2023-05-01T08:23:17.797Z,13.57
2023-05-01T08:25:46.999Z,13.62
2023-05-01T08:28:15.013Z,13.69
2023-05-01T08:30:41.859Z,13.74
2023-05-01T08:33:08.740Z,13.81
2023-05-01T08:35:35.589Z,13.87
2023-05-01T08:38:02.684Z,13.93
2023-05-01T08:40:36.447Z,13.99
2023-05-01T08:43:03.929Z,14.04
2023-05-01T08:45:36.286Z,14.07
2023-05-01T08:48:05.669Z,14.12
2023-05-01T08:50:35.855Z,14.17
2023-05-01T08:53:04.304Z,14.24
2023-05-01T08:55:33.463Z,14.28
2023-05-01T08:58:04.293Z,14.37
2023-05-01T09:00:34.290Z,14.44
2023-05-01T09:03:03.091Z,14.52
2023-05-01T09:05:33.431Z,14.59
2023-05-01T09:08:01.026Z,14.69
2023-05-01T09:10:27.982Z,14.76
2023-05-01T09:12:58.338Z,14.83
2023-05-01T09:15:26.526Z,14.91
2023-05-01T09:17:53.975Z,14.98
2023-05-01T09:20:21.216Z,15.04
2023-05-01T09:22:48.734Z,15.10
2023-05-01T09:25:15.412Z,15.16
2023-05-01T09:27:42.254Z,15.20
2023-05-01T09:30:29.404Z,15.24
2023-05-01T09:33:05.020Z,15.32
2023-05-01T09:35:33.266Z,15.39
2023-05-01T09:38:00.074Z,15.47
2023-05-01T09:40:28.094Z,15.57
2023-05-01T09:42:58.789Z,15.69
2023-05-01T09:45:27.912Z,15.77
2023-05-01T09:48:10.781Z,15.87
2023-05-01T09:50:38.611Z,15.96
2023-05-01T09:53:06.693Z,16.05
2023-05-01T09:55:34.111Z,16.10
2023-05-01T09:58:01.273Z,16.17
2023-05-01T10:00:30.233Z,16.23
2023-05-01T10:02:58.551Z,16.32
2023-05-01T10:05:26.284Z,16.38
2023-05-01T10:07:59.496Z,16.47
2023-05-01T10:10:26.577Z,16.57
2023-05-01T10:12:53.323Z,16.68
2023-05-01T10:15:26.502Z,16.78
2023-05-01T10:17:55.546Z,16.89
2023-05-01T10:20:22.463Z,17.01
2023-05-01T10:22:49.785Z,17.09
2023-05-01T10:25:17.822Z,17.19
2023-05-01T10:27:44.811Z,17.25
2023-05-01T10:30:12.666Z,17.33
2023-05-01T10:32:42.860Z,17.40
2023-05-01T10:35:14.535Z,17.52
2023-05-01T10:37:47.708Z,17.63
2023-05-01T10:40:46.913Z,17.73
2023-05-01T10:43:15.852Z,17.85
2023-05-01T10:45:43.381Z,17.91
2023-05-01T10:48:10.170Z,17.97
2023-05-01T11:03:58.140Z,18.30
2023-05-01T11:06:25.680Z,18.35
2023-05-01T11:08:55.028Z,18.43
2023-05-01T11:11:49.757Z,18.50
2023-05-01T11:14:17.998Z,18.59
2023-05-01T11:16:46.833Z,18.66
2023-05-01T11:19:49.492Z,18.75
2023-05-01T11:22:16.396Z,18.84
2023-05-01T11:24:43.385Z,18.93
2023-05-01T11:27:14.130Z,19.01
2023-05-01T11:29:44.325Z,19.09
2023-05-01T11:32:16.835Z,19.17
2023-05-01T11:34:43.958Z,19.25
2023-05-01T11:37:12.079Z,19.30
2023-05-01T11:39:38.752Z,19.35
2023-05-01T11:42:08.828Z,19.40
2023-05-01T11:44:37.575Z,19.48
2023-05-01T11:47:07.219Z,19.57
2023-05-01T11:49:34.282Z,19.65
2023-05-01T11:52:01.165Z,19.70
2023-05-01T11:54:29.403Z,19.76
2023-05-01T11:57:00.331Z,19.81
2023-05-01T11:59:27.451Z,19.87
2023-05-01T12:01:54.323Z,19.91
2023-05-01T12:04:30.677Z,19.96
2023-05-01T12:06:58.443Z,20.01
2023-05-01T12:09:29.267Z,20.05
2023-05-01T12:11:59.710Z,20.08
2023-05-01T12:14:26.597Z,20.11
2023-05-01T12:16:54.064Z,20.19
2023-05-01T12:19:22.437Z,20.24
2023-05-01T12:22:05.577Z,20.28
2023-05-01T12:24:33.408Z,20.29
2023-05-01T12:27:03.619Z,20.29
2023-05-01T12:29:40.058Z,20.30
2023-05-01T12:32:08.153Z,20.25
2023-05-01T12:34:34.906Z,20.13
2023-05-01T12:37:03.115Z,20.10
2023-05-01T12:39:41.122Z,19.93
2023-05-01T12:42:16.908Z,19.85
2023-05-01T12:44:45.025Z,19.74
2023-05-01T12:47:13.000Z,19.77
2023-05-01T12:49:40.604Z,19.76
2023-05-01T12:52:09.089Z,19.72
2023-05-01T12:54:38.511Z,19.83
2023-05-01T12:57:06.759Z,19.82
2023-05-01T12:59:36.727Z,19.73
2023-05-01T13:02:05.129Z,19.74
2023-05-01T13:04:32.414Z,19.78
2023-05-01T13:06:59.828Z,19.86
2023-05-01T13:09:32.821Z,19.97
2023-05-01T13:12:02.220Z,20.05
2023-05-01T13:14:31.008Z,20.07
2023-05-01T13:16:59.202Z,20.00
2023-05-01T13:19:28.468Z,19.99
2023-05-01T13:21:57.711Z,20.04
2023-05-01T13:24:24.902Z,20.13
2023-05-01T13:27:04.198Z,20.21
2023-05-01T13:29:33.344Z,20.10
2023-05-01T13:32:03.572Z,20.01
2023-05-01T13:34:33.231Z,20.07
2023-05-01T13:37:01.806Z,20.19
2023-05-01T13:39:29.395Z,20.14
2023-05-01T13:41:56.398Z,20.17
2023-05-01T13:44:23.254Z,20.28
2023-05-01T13:46:50.084Z,20.40
2023-05-01T13:49:21.754Z,20.43
2023-05-01T13:51:48.919Z,20.36
2023-05-01T13:54:17.065Z,20.27
2023-05-01T13:56:43.705Z,20.30
2023-05-01T13:59:10.812Z,20.27
2023-05-01T14:01:46.155Z,20.26
2023-05-01T14:04:16.930Z,20.06
2023-05-01T14:06:47.554Z,19.99
2023-05-01T14:09:17.866Z,20.00
2023-05-01T14:11:48.905Z,20.00
2023-05-01T14:14:17.150Z,19.94
2023-05-01T14:16:47.794Z,19.85
2023-05-01T14:19:18.499Z,19.81
2023-05-01T14:21:47.154Z,19.73
2023-05-01T14:24:18.113Z,19.62
2023-05-01T14:26:48.153Z,19.54
2023-05-01T14:29:22.951Z,19.52
2023-05-01T14:31:49.928Z,19.46
2023-05-01T14:34:18.568Z,19.39
2023-05-01T14:36:46.834Z,19.33
2023-05-01T14:39:15.921Z,19.27
2023-05-01T14:41:42.929Z,19.12
2023-05-01T14:44:13.048Z,19.07
2023-05-01T14:46:46.689Z,19.01
2023-05-01T14:49:19.276Z,18.97
2023-05-01T14:51:47.688Z,18.93
2023-05-01T14:54:15.295Z,18.81
2023-05-01T14:56:43.172Z,18.66
2023-05-01T14:59:09.878Z,18.58
2023-05-01T15:01:36.879Z,18.54
2023-05-01T15:04:07.401Z,18.47
2023-05-01T15:06:34.728Z,18.29
2023-05-01T15:09:04.541Z,18.14
2023-05-01T15:11:31.370Z,18.07
2023-05-01T15:13:58.315Z,18.02
2023-05-01T15:16:25.039Z,17.99
2023-05-01T15:18:51.725Z,17.98
2023-05-01T15:21:18.690Z,17.95
2023-05-01T15:23:46.382Z,17.84
2023-05-01T15:26:14.951Z,17.79
2023-05-01T15:28:42.265Z,17.71
2023-05-01T15:31:08.947Z,17.67
2023-05-01T15:33:35.755Z,17.62
2023-05-01T15:36:02.452Z,17.59
2023-05-01T15:38:29.824Z,17.56
2023-05-01T15:40:56.973Z,17.50
2023-05-01T15:43:25.141Z,17.51
2023-05-01T15:45:52.158Z,17.55
2023-05-01T15:48:19.260Z,17.55
2023-05-01T15:50:48.998Z,17.59
2023-05-01T15:53:17.223Z,17.65
2023-05-01T15:55:44.009Z,17.71
2023-05-01T15:58:13.087Z,17.77
2023-05-01T16:00:41.214Z,17.82
2023-05-01T16:03:08.415Z,17.78
2023-05-01T16:05:37.190Z,17.85
2023-05-01T16:08:06.275Z,17.95
2023-05-01T16:10:37.373Z,18.03
2023-05-01T16:13:05.804Z,18.15
2023-05-01T16:15:33.260Z,18.22
2023-05-01T16:18:04.279Z,18.24
2023-05-01T16:20:35.113Z,18.20
2023-05-01T16:23:03.347Z,18.18
2023-05-01T16:25:30.519Z,18.15
2023-05-01T16:27:57.253Z,18.15
2023-05-01T16:30:27.748Z,18.14
2023-05-01T16:32:54.763Z,18.14
2023-05-01T16:35:26.777Z,18.13
2023-05-01T16:37:53.858Z,18.16
2023-05-01T16:40:22.108Z,18.17
2023-05-01T16:42:52.569Z,18.20
2023-05-01T16:45:19.479Z,18.20
2023-05-01T16:47:47.359Z,18.17
2023-05-01T16:50:14.342Z,18.14
2023-05-01T16:52:42.414Z,18.12
2023-05-01T16:55:10.074Z,18.12
2023-05-01T16:57:37.086Z,18.16
2023-05-01T17:00:05.352Z,18.16
2023-05-01T17:02:33.326Z,18.08
2023-05-01T17:05:00.617Z,17.98
2023-05-01T17:07:27.245Z,17.90
2023-05-01T17:09:55.380Z,17.84
2023-05-01T17:12:22.284Z,17.74
2023-05-01T17:14:49.125Z,17.63
2023-05-01T17:17:17.872Z,17.61
2023-05-01T17:19:44.656Z,17.60
2023-05-01T17:22:11.368Z,17.54
2023-05-01T17:24:38.302Z,17.48
2023-05-01T17:27:06.519Z,17.42
2023-05-01T17:29:33.195Z,17.34
2023-05-01T17:32:00.031Z,17.29
2023-05-01T17:34:26.819Z,17.29
2023-05-01T17:36:55.209Z,17.24
2023-05-01T17:39:23.328Z,17.20
2023-05-01T17:41:50.033Z,17.15
2023-05-01T17:44:18.053Z,17.12
2023-05-01T17:46:44.912Z,17.10
2023-05-01T17:49:11.595Z,17.06
2023-05-01T17:51:38.243Z,17.05
2023-05-01T17:54:05.972Z,17.06
2023-05-01T17:56:36.087Z,16.97
2023-05-01T17:59:46.203Z,16.91
2023-05-01T18:02:20.133Z,16.88
2023-05-01T18:04:50.247Z,16.87
2023-05-01T18:07:17.252Z,16.81
2023-05-01T18:09:43.996Z,16.75
2023-05-01T18:12:11.362Z,16.68
2023-05-01T18:14:39.429Z,16.55
2023-05-01T18:17:06.361Z,16.44
2023-05-01T18:19:33.290Z,16.36
2023-05-01T18:22:00.117Z,16.27
2023-05-01T18:24:27.383Z,16.19
2023-05-01T18:26:54.052Z,16.11
2023-05-01T18:29:22.869Z,16.05
2023-05-01T18:31:51.265Z,15.99
2023-05-01T18:34:19.227Z,15.97
2023-05-01T18:36:47.614Z,15.92
2023-05-01T18:39:14.551Z,15.86
2023-05-01T18:41:41.314Z,15.82
2023-05-01T18:44:07.986Z,15.73
2023-05-01T18:46:36.031Z,15.65
2023-05-01T18:49:04.032Z,15.57
2023-05-01T18:51:31.334Z,15.54
2023-05-01T18:53:59.234Z,15.53
2023-05-01T18:56:27.994Z,15.48
2023-05-01T18:58:55.997Z,15.44
2023-05-01T19:01:23.398Z,15.45
2023-05-01T19:03:50.084Z,15.38
2023-05-01T19:06:18.097Z,15.36
2023-05-01T19:08:45.046Z,15.34
2023-05-01T19:11:11.747Z,15.31
2023-05-01T19:13:39.645Z,15.29
2023-05-01T19:16:06.539Z,15.26
2023-05-01T19:18:33.604Z,15.31
2023-05-01T19:21:00.458Z,15.34
2023-05-01T19:23:30.676Z,15.28
2023-05-01T19:25:58.104Z,15.28
2023-05-01T19:28:24.845Z,15.26
2023-05-01T19:30:51.818Z,15.25
2023-05-01T19:33:18.583Z,15.22
2023-05-01T19:35:45.806Z,15.21
2023-05-01T19:38:14.905Z,15.18
2023-05-01T19:40:44.924Z,15.12
2023-05-01T19:43:13.403Z,15.04
2023-05-01T19:45:40.722Z,14.97
2023-05-01T19:48:07.738Z,14.94
2023-05-01T19:50:34.621Z,14.92
2023-05-01T19:53:02.109Z,14.89
2023-05-01T19:55:28.776Z,14.87
2023-05-01T19:57:57.152Z,14.87
2023-05-01T20:00:23.868Z,14.85
2023-05-01T20:02:50.657Z,14.82
2023-05-01T20:05:17.456Z,14.81
2023-05-01T20:07:45.320Z,14.78
2023-05-01T20:10:12.069Z,14.75
2023-05-01T20:12:38.999Z,14.68
2023-05-01T20:15:10.369Z,14.67
2023-05-01T20:17:37.165Z,14.64
2023-05-01T20:20:04.466Z,14.64
2023-05-01T20:22:31.619Z,14.63
2023-05-01T20:24:58.311Z,14.61
2023-05-01T20:27:26.348Z,14.61
2023-05-01T20:29:53.146Z,14.60
2023-05-01T20:32:21.183Z,14.57
2023-05-01T20:34:48.348Z,14.56
2023-05-01T20:37:15.131Z,14.48
2023-05-01T20:39:41.798Z,14.44
2023-05-01T20:42:09.060Z,14.41
2023-05-01T20:44:35.819Z,14.34
2023-05-01T20:47:02.598Z,14.27
2023-05-01T20:49:30.669Z,14.26
2023-05-01T20:51:58.963Z,14.25
2023-05-01T20:54:25.798Z,14.20
2023-05-01T20:56:53.111Z,14.19
2023-05-01T20:59:19.913Z,14.15
2023-05-01T21:01:46.804Z,14.14
2023-05-01T21:04:13.640Z,14.09
2023-05-01T21:06:41.986Z,14.04
2023-05-01T21:09:11.147Z,14.00
2023-05-01T21:11:39.480Z,13.92
2023-05-01T21:14:07.286Z,13.85
2023-05-01T21:16:34.268Z,13.76
2023-05-01T21:19:01.232Z,13.69
2023-05-01T21:21:28.051Z,13.62
2023-05-01T21:23:56.124Z,13.59
2023-05-01T21:26:22.988Z,13.58
2023-05-01T21:28:49.950Z,13.51
2023-05-01T21:31:17.033Z,13.47
2023-05-01T21:33:47.417Z,13.44
2023-05-01T21:36:17.335Z,13.40
2023-05-01T21:38:45.931Z,13.42
2023-05-01T21:41:21.097Z,13.40
2023-05-01T21:43:47.977Z,13.41
2023-05-01T21:46:15.998Z,13.38
2023-05-01T21:48:42.877Z,13.31
2023-05-01T21:51:09.655Z,13.27
2023-05-01T21:53:40.540Z,13.27
2023-05-01T21:56:07.592Z,13.23
2023-05-01T21:58:36.061Z,13.13
2023-05-01T22:01:03.187Z,13.04
2023-05-01T22:03:33.313Z,13.04
2023-05-01T22:06:00.367Z,13.01
2023-05-01T22:08:28.762Z,12.97
2023-05-01T22:10:55.470Z,12.89
2023-05-01T22:13:22.161Z,12.87
2023-05-01T22:15:50.534Z,12.86
2023-05-01T22:18:19.629Z,12.89
2023-05-01T22:20:46.721Z,12.92
2023-05-01T22:23:14.295Z,12.88
2023-05-01T22:25:41.047Z,12.84
2023-05-01T22:28:08.796Z,12.83
2023-05-01T22:30:37.210Z,12.82
2023-05-01T22:33:05.614Z,12.82
2023-05-01T22:35:32.344Z,12.83
2023-05-01T22:37:59.141Z,12.87
2023-05-01T22:40:26.414Z,12.88
2023-05-01T22:42:53.293Z,12.87
2023-05-01T22:45:20.764Z,12.84
2023-05-01T22:47:47.509Z,12.81
2023-05-01T22:50:17.024Z,12.79
2023-05-01T22:52:45.828Z,12.75
2023-05-01T22:55:13.422Z,12.73
2023-05-01T22:57:40.094Z,12.74
2023-05-01T23:00:09.670Z,12.74
2023-05-01T23:02:36.584Z,12.67
2023-05-01T23:05:04.055Z,12.60
2023-05-01T23:07:32.103Z,12.53
2023-05-01T23:09:59.017Z,12.50
2023-05-01T23:12:27.791Z,12.48
2023-05-01T23:14:55.392Z,12.46
2023-05-01T23:17:22.492Z,12.48
2023-05-01T23:19:51.079Z,12.45
2023-05-01T23:22:19.175Z,12.45
2023-05-01T23:24:48.537Z,12.47
2023-05-01T23:27:15.967Z,12.47
2023-05-01T23:29:54.603Z,12.49
2023-05-01T23:32:27.107Z,12.44
2023-05-01T23:34:55.049Z,12.44
2023-05-01T23:37:22.100Z,12.46
2023-05-01T23:39:51.169Z,12.42
2023-05-01T23:42:17.863Z,12.44
2023-05-01T23:44:44.644Z,12.47
2023-05-01T23:47:11.657Z,12.52
2023-05-01T23:49:38.555Z,12.58
2023-05-01T23:52:06.855Z,12.58
2023-05-01T23:54:33.630Z,12.62
2023-05-01T23:57:02.701Z,12.66
2023-05-01T23:59:29.425Z,12.68
